createdAt,value
2023-03-07T00:00:07.537Z,698.4
2023-03-07T00:01:09.473Z,698.4
2023-03-07T00:02:11.955Z,698.7
2023-03-07T00:03:14.469Z,698.4
2023-03-07T00:04:16.966Z,698.8
2023-03-07T00:05:19.340Z,698.6
2023-03-07T00:06:21.586Z,698.6
2023-03-07T00:07:23.576Z,698.9
2023-03-07T00:08:25.808Z,699.1
2023-03-07T00:09:28.082Z,698.8
2023-03-07T00:10:30.022Z,699.5
2023-03-07T00:11:32.560Z,699
2023-03-07T00:12:34.780Z,698.9
2023-03-07T00:13:37.430Z,698.9
2023-03-07T00:14:39.416Z,698.6
2023-03-07T00:15:41.942Z,698.5
2023-03-07T00:16:44.541Z,699
2023-03-07T00:17:46.447Z,698.9
2023-03-07T00:18:48.775Z,698.7
2023-03-07T00:19:51.005Z,698.4
2023-03-07T00:20:53.499Z,698.2
2023-03-07T00:21:56.046Z,698.9
2023-03-07T00:22:58.590Z,699.5
2023-03-07T00:24:01.119Z,699.4
2023-03-07T00:25:03.686Z,699.4
2023-03-07T00:26:05.931Z,699.5
2023-03-07T00:27:08.444Z,699.7
2023-03-07T00:28:10.724Z,699.7
2023-03-07T00:29:13.030Z,699.6
2023-03-07T00:30:15.264Z,699.9
2023-03-07T00:31:17.737Z,699.6
2023-03-07T00:32:20.555Z,700.1
2023-03-07T00:33:22.531Z,699.8
2023-03-07T00:34:24.744Z,700.6
2023-03-07T00:35:26.389Z,700.5
2023-03-07T00:36:28.875Z,700.1
2023-03-07T00:37:31.084Z,700.5
2023-03-07T00:38:33.363Z,700.3
2023-03-07T00:39:35.330Z,700.2
2023-03-07T00:40:37.827Z,700.5
2023-03-07T00:41:40.307Z,700.7
2023-03-07T00:42:42.233Z,700.8
2023-03-07T00:43:44.741Z,701.2
2023-03-07T00:44:47.056Z,700.9
2023-03-07T00:45:49.826Z,700.9
2023-03-07T00:46:52.345Z,701.1
2023-03-07T00:47:54.840Z,700.8
2023-03-07T00:48:57.092Z,701
2023-03-07T00:49:59.584Z,701.5
2023-03-07T00:51:02.087Z,701.2
2023-03-07T00:52:04.339Z,701
2023-03-07T00:53:06.543Z,701.1
2023-03-07T00:54:09.063Z,701.2
2023-03-07T00:55:11.574Z,701.8
2023-03-07T00:56:13.837Z,702.3
2023-03-07T00:57:16.359Z,702.7
2023-03-07T00:58:18.599Z,702.5
2023-03-07T00:59:20.829Z,702.6
2023-03-07T01:00:22.872Z,702.3
2023-03-07T01:01:25.483Z,702.3
2023-03-07T01:02:27.963Z,702.4
2023-03-07T01:03:30.494Z,702.4
2023-03-07T01:04:33.051Z,702.4
2023-03-07T01:05:35.337Z,702.4
2023-03-07T01:06:37.821Z,702.3
2023-03-07T01:07:40.328Z,702.2
2023-03-07T01:08:42.861Z,701.9
2023-03-07T01:09:45.381Z,702
2023-03-07T01:10:47.618Z,702.3
2023-03-07T01:11:49.841Z,702.2
2023-03-07T01:12:52.097Z,702.5
2023-03-07T01:13:54.701Z,702.3
2023-03-07T01:14:57.234Z,702.5
2023-03-07T01:15:59.839Z,703.1
2023-03-07T01:17:02.347Z,702.7
2023-03-07T01:18:04.298Z,703
2023-03-07T01:19:06.592Z,702.8
2023-03-07T01:20:09.160Z,702.8
2023-03-07T01:21:11.375Z,702.6
2023-03-07T01:22:13.592Z,702.8
2023-03-07T01:23:16.170Z,703.2
2023-03-07T01:24:18.134Z,703
2023-03-07T01:25:20.116Z,703.3
2023-03-07T01:26:22.069Z,703.6
2023-03-07T01:27:24.583Z,704.1
2023-03-07T01:28:27.063Z,704.3
2023-03-07T01:29:29.005Z,703.9
2023-03-07T01:30:31.538Z,704.1
2023-03-07T01:31:34.678Z,704.2
2023-03-07T01:32:37.243Z,704.4
2023-03-07T01:33:39.739Z,704.3
2023-03-07T01:34:41.955Z,704.5
2023-03-07T01:35:44.680Z,704
2023-03-07T01:36:47.374Z,704.6
2023-03-07T01:37:49.605Z,704.5
2023-03-07T01:38:51.822Z,704.8
2023-03-07T01:39:54.036Z,704.7
2023-03-07T01:40:56.575Z,704.5
2023-03-07T01:41:59.099Z,705.1
2023-03-07T01:43:01.030Z,704.7
2023-03-07T01:44:03.276Z,704.6
2023-03-07T01:45:05.562Z,704.9
2023-03-07T01:46:08.178Z,704.3
2023-03-07T01:47:10.879Z,704.6
2023-03-07T01:48:13.359Z,704.7
2023-03-07T01:49:15.032Z,704.8
2023-03-07T01:50:17.316Z,704.6
2023-03-07T01:51:19.507Z,704.9
2023-03-07T01:52:21.730Z,705.1
2023-03-07T01:53:23.932Z,705.2
2023-03-07T01:54:25.907Z,705.3
2023-03-07T01:55:28.163Z,705.3
2023-03-07T01:56:30.722Z,705.8
2023-03-07T01:57:32.975Z,705.6
2023-03-07T01:58:35.182Z,705.5
2023-03-07T01:59:37.721Z,706.1
2023-03-07T02:00:39.935Z,706
2023-03-07T02:01:42.673Z,706.1
2023-03-07T02:02:45.324Z,706.3
2023-03-07T02:03:47.862Z,706.3
2023-03-07T02:04:50.363Z,706
2023-03-07T02:05:52.599Z,706.4
2023-03-07T02:06:55.084Z,706.7
2023-03-07T02:07:57.307Z,707
2023-03-07T02:08:59.249Z,706.6
2023-03-07T02:10:01.774Z,706.8
2023-03-07T02:11:04.265Z,706.6
2023-03-07T02:12:06.532Z,706.5
2023-03-07T02:13:09.020Z,707
2023-03-07T02:14:11.269Z,706.9
2023-03-07T02:15:13.182Z,706.9
2023-03-07T02:16:15.810Z,706.8
2023-03-07T02:17:18.300Z,706.8
2023-03-07T02:18:20.931Z,706.5
2023-03-07T02:19:23.443Z,707.1
2023-03-07T02:20:25.959Z,707
2023-03-07T02:21:28.464Z,706.6
2023-03-07T02:22:30.684Z,706.9
2023-03-07T02:23:33.183Z,706.8
2023-03-07T02:24:35.673Z,706.9
2023-03-07T02:25:37.704Z,706.7
2023-03-07T02:26:40.190Z,706.7
2023-03-07T02:27:42.728Z,706.1
2023-03-07T02:28:45.214Z,706.7
2023-03-07T02:29:47.132Z,706.6
2023-03-07T02:30:49.577Z,707
2023-03-07T02:31:51.488Z,706.8
2023-03-07T02:32:53.988Z,706.9
2023-03-07T02:33:56.598Z,706.4
2023-03-07T02:34:59.026Z,707
2023-03-07T02:36:01.964Z,707
2023-03-07T02:37:04.209Z,707.1
2023-03-07T02:38:06.481Z,706.8
2023-03-07T02:39:08.744Z,707
2023-03-07T02:40:10.748Z,706.2
2023-03-07T02:41:13.016Z,706.4
2023-03-07T02:42:15.530Z,706.5
2023-03-07T02:43:17.815Z,706.8
2023-03-07T02:44:20.140Z,706.5
2023-03-07T02:45:22.371Z,707
2023-03-07T02:46:24.922Z,706.6
2023-03-07T02:47:27.466Z,706.5
2023-03-07T02:48:29.740Z,706.4
2023-03-07T02:49:32.114Z,706.3
2023-03-07T02:50:34.330Z,706.7
2023-03-07T02:51:36.556Z,706.5
2023-03-07T02:52:38.763Z,706.6
2023-03-07T02:53:40.704Z,706.6
2023-03-07T02:54:43.214Z,706.3
2023-03-07T02:55:45.153Z,706.3
2023-03-07T02:56:47.661Z,706.1
2023-03-07T02:57:50.159Z,706.4
2023-03-07T02:58:52.726Z,706.5
2023-03-07T02:59:54.951Z,706.3
2023-03-07T03:00:57.177Z,706.4
2023-03-07T03:02:00.146Z,706.2
2023-03-07T03:03:02.126Z,706.4
2023-03-07T03:04:04.067Z,707.1
2023-03-07T03:05:06.722Z,706.9
2023-03-07T03:06:08.940Z,706.9
2023-03-07T03:07:11.185Z,707
2023-03-07T03:08:13.402Z,707.2
2023-03-07T03:09:15.894Z,707.5
2023-03-07T03:10:17.828Z,707.5
2023-03-07T03:11:20.309Z,707.6
2023-03-07T03:12:22.837Z,707.9
2023-03-07T03:13:24.768Z,707.9
2023-03-07T03:14:27.318Z,707.5
2023-03-07T03:15:29.540Z,707.8
2023-03-07T03:16:32.156Z,707.9
2023-03-07T03:17:34.662Z,708
2023-03-07T03:18:36.581Z,708.3
2023-03-07T03:19:39.068Z,708
2023-03-07T03:20:41.774Z,707.9
2023-03-07T03:21:44.312Z,707.9
2023-03-07T03:22:46.533Z,707.9
2023-03-07T03:23:48.757Z,707.9
2023-03-07T03:24:50.980Z,708.1
2023-03-07T03:25:53.193Z,708.1
2023-03-07T03:26:54.845Z,708.4
2023-03-07T03:27:56.807Z,708.5
2023-03-07T03:28:59.289Z,708.6
2023-03-07T03:30:01.860Z,708.9
2023-03-07T03:31:04.303Z,708.5
2023-03-07T03:32:06.759Z,708.7
2023-03-07T03:33:08.471Z,708.8
2023-03-07T03:34:10.691Z,708.9
2023-03-07T03:35:12.917Z,708.2
2023-03-07T03:36:15.610Z,708.5
2023-03-07T03:37:17.832Z,708.3
2023-03-07T03:38:20.351Z,708.8
2023-03-07T03:39:22.880Z,708.7
2023-03-07T03:40:25.137Z,708.6
2023-03-07T03:41:27.368Z,708.9
2023-03-07T03:42:29.847Z,709.5
2023-03-07T03:43:32.319Z,709.2
2023-03-07T03:44:34.257Z,709
2023-03-07T03:45:36.772Z,709.2
2023-03-07T03:46:39.072Z,708.9
2023-03-07T03:47:41.273Z,709.5
2023-03-07T03:48:43.550Z,709.6
2023-03-07T03:49:45.493Z,709
2023-03-07T03:50:47.700Z,709.3
2023-03-07T03:51:50.320Z,709.1
2023-03-07T03:52:52.817Z,709.2
2023-03-07T03:53:55.057Z,709
2023-03-07T03:54:57.620Z,709.3
2023-03-07T03:56:00.142Z,709.4
2023-03-07T03:57:02.688Z,709.2
2023-03-07T03:58:05.109Z,709.7
2023-03-07T03:59:07.645Z,709.6
2023-03-07T04:00:10.157Z,709.9
2023-03-07T04:01:12.787Z,709.8
2023-03-07T04:02:15.628Z,709.6
2023-03-07T04:03:17.916Z,709.9
2023-03-07T04:04:20.135Z,710.3
2023-03-07T04:05:22.342Z,710.1
2023-03-07T04:06:24.289Z,710.2
2023-03-07T04:07:26.931Z,709.9
2023-03-07T04:08:29.421Z,710.5
2023-03-07T04:09:31.633Z,710.5
2023-03-07T04:10:33.874Z,710.8
2023-03-07T04:11:35.802Z,710.9
2023-03-07T04:12:38.315Z,710.6
2023-03-07T04:13:40.568Z,711.2
2023-03-07T04:14:43.072Z,711
2023-03-07T04:15:45.274Z,711.1
2023-03-07T04:16:48.121Z,711
2023-03-07T04:17:50.653Z,711.6
2023-03-07T04:18:53.151Z,710.9
2023-03-07T04:19:55.656Z,710.7
2023-03-07T04:20:58.176Z,711.6
2023-03-07T04:22:00.677Z,711.1
2023-03-07T04:23:03.245Z,711.3
2023-03-07T04:24:05.730Z,710.9
2023-03-07T04:25:07.951Z,711.4
2023-03-07T04:26:10.894Z,711.5
2023-03-07T04:27:12.909Z,711.5
2023-03-07T04:28:15.123Z,711.5
2023-03-07T04:29:17.597Z,711.4
2023-03-07T04:30:20.081Z,711.7
2023-03-07T04:31:22.808Z,711.7
2023-03-07T04:32:25.439Z,711.9
2023-03-07T04:33:27.661Z,711.5
2023-03-07T04:34:30.594Z,711.7
2023-03-07T04:35:33.552Z,711.6
2023-03-07T04:36:35.842Z,711.8
2023-03-07T04:37:38.389Z,711.7
2023-03-07T04:38:41.131Z,711.7
2023-03-07T04:39:43.740Z,711.7
2023-03-07T04:40:46.321Z,711.9
2023-03-07T04:41:48.629Z,711.7
2023-03-07T04:42:50.840Z,711.6
2023-03-07T04:43:53.079Z,711.8
2023-03-07T04:44:55.789Z,712.1
2023-03-07T04:45:58.600Z,711.9
2023-03-07T04:47:01.220Z,711.9
2023-03-07T04:48:03.480Z,711.7
2023-03-07T04:49:06.016Z,712
2023-03-07T04:50:08.583Z,712.2
2023-03-07T04:51:11.104Z,712.6
2023-03-07T04:52:13.601Z,712.1
2023-03-07T04:53:16.128Z,712.8
2023-03-07T04:54:18.728Z,712.1
2023-03-07T04:55:21.207Z,711.9
2023-03-07T04:56:23.704Z,712.5
2023-03-07T04:57:26.206Z,712.8
2023-03-07T04:58:28.439Z,712.1
2023-03-07T04:59:30.687Z,712.4
2023-03-07T05:00:33.173Z,712.3
2023-03-07T05:01:35.702Z,712.4
2023-03-07T05:02:37.953Z,712.4
2023-03-07T05:03:40.470Z,712.3
2023-03-07T05:04:43.103Z,712.4
2023-03-07T05:05:45.590Z,712.2
2023-03-07T05:06:47.534Z,712
2023-03-07T05:07:50.016Z,712
2023-03-07T05:08:52.529Z,711.7
2023-03-07T05:09:54.893Z,711.3
2023-03-07T05:10:57.391Z,711.7
2023-03-07T05:11:59.329Z,711.7
2023-03-07T05:13:01.849Z,711.3
2023-03-07T05:14:04.338Z,711.4
2023-03-07T05:15:06.672Z,711.1
2023-03-07T05:16:09.206Z,711.6
2023-03-07T05:17:11.198Z,711.5
2023-03-07T05:18:13.691Z,711.2
2023-03-07T05:19:16.730Z,711.5
2023-03-07T05:20:19.239Z,711.5
2023-03-07T05:21:21.750Z,711.2
2023-03-07T05:22:24.237Z,711.6
2023-03-07T05:23:26.753Z,711.3
2023-03-07T05:24:29.243Z,711.8
2023-03-07T05:25:31.622Z,711.3
2023-03-07T05:26:34.133Z,711.6
2023-03-07T05:27:36.365Z,711.4
2023-03-07T05:28:38.885Z,711.9
2023-03-07T05:29:41.149Z,711.5
2023-03-07T05:30:43.798Z,712
2023-03-07T05:31:45.752Z,711.6
2023-03-07T05:32:48.270Z,711.6
2023-03-07T05:33:50.486Z,711.7
2023-03-07T05:34:53.002Z,711.4
2023-03-07T05:35:55.415Z,711.6
2023-03-07T05:36:57.492Z,711.8
2023-03-07T05:37:59.751Z,711.8
2023-03-07T05:39:01.987Z,711.8
2023-03-07T05:40:04.517Z,711.3
2023-03-07T05:41:07.153Z,711.8
2023-03-07T05:42:09.674Z,711.2
2023-03-07T05:43:11.919Z,712
2023-03-07T05:44:13.890Z,711.5
2023-03-07T05:45:16.408Z,711.7
2023-03-07T05:46:18.891Z,711.5
2023-03-07T05:47:21.153Z,711.9
2023-03-07T05:48:23.739Z,711.7
2023-03-07T05:49:25.924Z,711.9
2023-03-07T05:50:28.537Z,711.8
2023-03-07T05:51:31.025Z,712
2023-03-07T05:52:32.979Z,711.7
2023-03-07T05:53:35.513Z,712
2023-03-07T05:54:37.797Z,712
2023-03-07T05:55:40.302Z,712.3
2023-03-07T05:56:42.907Z,712.4
2023-03-07T05:57:45.501Z,712.9
2023-03-07T05:58:48.003Z,712.4
2023-03-07T05:59:50.422Z,712.3
2023-03-07T06:00:52.904Z,712.4
2023-03-07T06:01:55.408Z,712.8
2023-03-07T06:02:58.339Z,712.4
2023-03-07T06:04:00.986Z,712.8
2023-03-07T06:05:03.587Z,712.3
2023-03-07T06:06:06.108Z,712.6
2023-03-07T06:07:08.610Z,712.4
2023-03-07T06:08:10.805Z,712.6
2023-03-07T06:09:13.301Z,712.2
2023-03-07T06:10:15.820Z,712.1
2023-03-07T06:11:18.318Z,712.7
2023-03-07T06:12:21.144Z,712.7
2023-03-07T06:13:23.390Z,712.8
2023-03-07T06:14:25.887Z,712.3
2023-03-07T06:15:28.389Z,712.7
2023-03-07T06:16:30.930Z,713.1
2023-03-07T06:17:33.430Z,712.9
2023-03-07T06:18:35.908Z,712.6
2023-03-07T06:19:38.122Z,713
2023-03-07T06:20:40.621Z,712.7
2023-03-07T06:21:43.169Z,712.8
2023-03-07T06:22:45.427Z,712.4
2023-03-07T06:23:47.921Z,712.4
2023-03-07T06:24:50.461Z,712.5
2023-03-07T06:25:52.663Z,712.5
2023-03-07T06:26:54.969Z,712.4
2023-03-07T06:27:57.568Z,712.2
2023-03-07T06:28:59.547Z,712.1
2023-03-07T06:30:02.100Z,712.9
2023-03-07T06:31:04.815Z,712.2
2023-03-07T06:32:07.700Z,712
2023-03-07T06:33:10.281Z,711.9
2023-03-07T06:34:12.792Z,712.4
2023-03-07T06:35:15.316Z,712.3
2023-03-07T06:36:17.315Z,711.7
2023-03-07T06:37:19.856Z,712.1
2023-03-07T06:38:22.116Z,712.3
2023-03-07T06:39:24.477Z,712.5
2023-03-07T06:40:27.000Z,712.5
2023-03-07T06:41:28.994Z,712.7
2023-03-07T06:42:30.943Z,712.3
2023-03-07T06:43:33.331Z,712.2
2023-03-07T06:44:35.572Z,712.7
2023-03-07T06:45:38.086Z,712.8
2023-03-07T06:46:40.414Z,712.6
2023-03-07T06:47:42.924Z,712.4
2023-03-07T06:48:45.156Z,712.5
2023-03-07T06:49:47.691Z,712.5
2023-03-07T06:50:50.177Z,712.5
2023-03-07T06:51:52.919Z,712.1
2023-03-07T06:52:55.280Z,711.9
2023-03-07T06:53:57.801Z,712.2
2023-03-07T06:55:00.069Z,712.1
2023-03-07T06:56:02.323Z,712.4
2023-03-07T06:57:04.823Z,712.1
2023-03-07T06:58:07.367Z,712.1
2023-03-07T06:59:09.955Z,712
2023-03-07T07:00:12.460Z,712.1
2023-03-07T07:01:14.982Z,711.6
2023-03-07T07:02:17.725Z,711.5
2023-03-07T07:03:20.957Z,712
2023-03-07T07:04:23.491Z,711.8
2023-03-07T07:05:25.450Z,711.4
2023-03-07T07:06:27.467Z,711.9
2023-03-07T07:07:30.011Z,711.5
2023-03-07T07:08:32.589Z,711.3
2023-03-07T07:09:34.817Z,711.5
2023-03-07T07:10:37.314Z,711.9
2023-03-07T07:11:39.520Z,711.8
2023-03-07T07:12:41.755Z,712.5
2023-03-07T07:13:43.975Z,712
2023-03-07T07:14:46.670Z,712.6
2023-03-07T07:15:49.221Z,712.5
2023-03-07T07:16:52.082Z,712.3
2023-03-07T07:17:54.376Z,712.4
2023-03-07T07:18:56.651Z,712.6
2023-03-07T07:19:59.189Z,712.4
2023-03-07T07:21:01.723Z,712.3
2023-03-07T07:22:04.234Z,712.7
2023-03-07T07:23:06.518Z,712.6
2023-03-07T07:24:08.804Z,712.6
2023-03-07T07:25:11.029Z,712.6
2023-03-07T07:26:13.594Z,712.7
2023-03-07T07:27:16.132Z,712.1
2023-03-07T07:28:18.394Z,712.3
2023-03-07T07:29:20.906Z,712.7
2023-03-07T07:30:24.172Z,712.9
2023-03-07T07:31:26.985Z,713
2023-03-07T07:32:30.282Z,713.2
2023-03-07T07:33:33.390Z,713.7
2023-03-07T07:34:35.085Z,713.2
2023-03-07T07:35:37.847Z,713.9
2023-03-07T07:36:40.400Z,713.7
2023-03-07T07:37:42.989Z,714.3
2023-03-07T07:38:44.964Z,713.9
2023-03-07T07:39:47.281Z,714
2023-03-07T07:40:49.823Z,714.6
2023-03-07T07:41:52.049Z,714.4
2023-03-07T07:42:54.617Z,715.3
2023-03-07T07:43:57.183Z,715
2023-03-07T07:44:59.684Z,714.5
2023-03-07T07:46:02.744Z,715.1
2023-03-07T07:47:04.739Z,715.4
2023-03-07T07:48:06.965Z,715.1
2023-03-07T07:49:09.469Z,715.1
2023-03-07T07:50:11.709Z,715.1
2023-03-07T07:51:14.218Z,714.6
2023-03-07T07:52:16.518Z,714.8
2023-03-07T07:53:19.015Z,714.6
2023-03-07T07:54:21.516Z,714.7
2023-03-07T07:55:24.043Z,714.5
2023-03-07T07:56:26.319Z,714.1
2023-03-07T07:57:28.598Z,714.8
2023-03-07T07:58:30.825Z,714.6
2023-03-07T07:59:33.329Z,714.7
2023-03-07T08:00:36.449Z,714.8
2023-03-07T08:01:40.282Z,714.1
2023-03-07T08:02:42.992Z,714.6
2023-03-07T08:03:45.843Z,714.6
2023-03-07T08:04:48.412Z,714.9
2023-03-07T08:05:50.408Z,715.7
2023-03-07T08:06:52.921Z,715.3
2023-03-07T08:07:55.143Z,715.2
2023-03-07T08:08:57.402Z,715.1
2023-03-07T08:09:59.636Z,714.5
2023-03-07T08:11:01.922Z,714.9
2023-03-07T08:12:03.900Z,715.1
2023-03-07T08:13:06.434Z,715.1
2023-03-07T08:14:08.938Z,715.1
2023-03-07T08:15:11.181Z,715.8
2023-03-07T08:16:13.667Z,715.6
2023-03-07T08:17:16.314Z,715.8
2023-03-07T08:18:18.793Z,715.7
2023-03-07T08:19:20.753Z,715.5
2023-03-07T08:20:22.849Z,715.7
2023-03-07T08:21:25.066Z,715.2
2023-03-07T08:22:27.297Z,715.4
2023-03-07T08:23:29.597Z,715.8
2023-03-07T08:25:36.791Z,716.3
2023-03-07T08:26:39.340Z,716.1
2023-03-07T08:27:41.592Z,715.9
2023-03-07T08:28:44.133Z,716.1
2023-03-07T08:29:46.375Z,716.2
2023-03-07T08:30:48.791Z,716.4
2023-03-07T08:31:51.015Z,716.5
2023-03-07T08:32:53.682Z,716.4
2023-03-07T08:33:56.114Z,716.3
2023-03-07T08:34:58.725Z,716.3
2023-03-07T08:36:01.287Z,716.6
2023-03-07T08:37:03.817Z,716.3
2023-03-07T08:38:06.337Z,716.1
2023-03-07T08:39:08.595Z,716.5
2023-03-07T08:40:10.854Z,716.8
2023-03-07T08:41:13.101Z,716.1
2023-03-07T08:42:15.568Z,716.5
2023-03-07T08:43:18.097Z,717.1
2023-03-07T08:44:20.702Z,716.6
2023-03-07T08:45:24.899Z,717.1
2023-03-07T08:46:27.816Z,716
2023-03-07T08:47:30.342Z,717
2023-03-07T08:48:33.013Z,716.9
2023-03-07T08:49:34.959Z,716.6
2023-03-07T08:50:37.469Z,716.6
2023-03-07T08:51:39.975Z,716.5
2023-03-07T08:52:42.468Z,716.9
2023-03-07T08:53:45.045Z,716.2
2023-03-07T08:54:47.567Z,716.8
2023-03-07T08:55:50.146Z,717.1
2023-03-07T08:56:52.379Z,716.6
2023-03-07T08:57:54.693Z,717.1
2023-03-07T08:58:57.224Z,717.4
2023-03-07T08:59:59.792Z,716.9
2023-03-07T09:01:02.096Z,717.5
2023-03-07T09:02:04.461Z,717.1
2023-03-07T09:03:07.030Z,717.1
2023-03-07T09:04:09.687Z,716.7
2023-03-07T09:05:12.361Z,716.5
2023-03-07T09:06:14.899Z,716.6
2023-03-07T09:07:17.181Z,716.6
2023-03-07T09:08:19.662Z,717
2023-03-07T09:09:21.907Z,717.5
2023-03-07T09:10:24.289Z,717.3
2023-03-07T09:11:26.895Z,717.7
2023-03-07T09:12:28.842Z,717.3
2023-03-07T09:14:38.115Z,718.1
2023-03-07T09:15:40.631Z,717.5
2023-03-07T09:16:43.676Z,717.4
2023-03-07T09:17:45.671Z,717.7
2023-03-07T09:18:48.281Z,717.5
2023-03-07T09:19:50.652Z,717.4
2023-03-07T09:20:53.218Z,717.5
2023-03-07T09:21:55.202Z,717.4
2023-03-07T09:22:57.728Z,717.4
2023-03-07T09:24:00.280Z,717.3
2023-03-07T09:25:02.800Z,717.8
2023-03-07T09:26:04.775Z,717.4
2023-03-07T09:27:07.271Z,718
2023-03-07T09:28:09.525Z,717.7
2023-03-07T09:29:11.804Z,718
2023-03-07T09:30:14.077Z,718.5
2023-03-07T09:31:16.932Z,718.5
2023-03-07T09:32:19.677Z,718
2023-03-07T09:33:21.928Z,718.6
2023-03-07T09:34:24.436Z,719.4
2023-03-07T09:35:26.853Z,719.3
2023-03-07T09:36:29.373Z,719.4
2023-03-07T09:37:31.348Z,719.3
2023-03-07T09:38:34.069Z,719.3
2023-03-07T09:39:36.626Z,718.8
2023-03-07T09:40:38.936Z,720.1
2023-03-07T09:41:41.468Z,720.5
2023-03-07T09:42:44.022Z,720.4
2023-03-07T09:43:46.248Z,720.5
2023-03-07T09:44:48.524Z,720.3
2023-03-07T09:45:51.182Z,720.1
2023-03-07T09:46:53.667Z,719.8
2023-03-07T09:47:55.883Z,719.2
2023-03-07T09:48:57.867Z,720.4
2023-03-07T09:50:00.149Z,719.8
2023-03-07T09:52:10.891Z,721.3
2023-03-07T09:53:13.143Z,720.3
2023-03-07T09:54:15.788Z,721.2
2023-03-07T09:55:18.037Z,720.6
2023-03-07T09:56:20.622Z,720.8
2023-03-07T09:57:22.880Z,720.5
2023-03-07T09:58:25.393Z,721.1
2023-03-07T09:59:27.706Z,721.2
2023-03-07T10:00:30.275Z,722
2023-03-07T10:01:32.266Z,722
2023-03-07T10:02:34.535Z,721.4
2023-03-07T10:03:36.788Z,721.5
2023-03-07T10:04:39.717Z,722
2023-03-07T10:05:42.208Z,723
2023-03-07T10:06:44.750Z,723.3
2023-03-07T10:07:47.219Z,723.2
2023-03-07T10:08:49.829Z,723.6
2023-03-07T10:09:52.319Z,722.8
2023-03-07T10:10:54.559Z,723
2023-03-07T10:11:56.944Z,723
2023-03-07T10:12:59.228Z,723.4
2023-03-07T10:14:01.790Z,723.5
2023-03-07T10:15:04.315Z,723.1
2023-03-07T10:16:06.987Z,723
2023-03-07T10:17:09.915Z,724.1
2023-03-07T10:18:12.566Z,723
2023-03-07T10:19:15.283Z,724
2023-03-07T10:20:18.217Z,723.7
2023-03-07T10:21:20.557Z,723.8
2023-03-07T10:22:22.792Z,724.2
2023-03-07T10:23:25.534Z,723.3
2023-03-07T10:24:27.805Z,722.9
2023-03-07T10:25:29.824Z,724.2
2023-03-07T10:26:32.344Z,724.3
2023-03-07T10:27:34.870Z,724.5
2023-03-07T10:28:36.829Z,724.1
2023-03-07T10:29:39.070Z,725.4
2023-03-07T10:30:41.512Z,724.9
2023-03-07T10:31:44.250Z,725.1
2023-03-07T10:32:46.887Z,725.3
2023-03-07T10:33:49.462Z,725.3
2023-03-07T10:34:51.697Z,725.8
2023-03-07T10:35:54.465Z,726
2023-03-07T10:38:01.715Z,726
2023-03-07T10:39:04.351Z,726.3
2023-03-07T10:40:07.703Z,726.6
2023-03-07T10:41:10.321Z,726.5
2023-03-07T10:42:12.330Z,726.1
2023-03-07T10:43:14.906Z,726
2023-03-07T10:44:18.165Z,726.2
2023-03-07T10:45:20.371Z,726.2
2023-03-07T10:47:27.639Z,727.2
2023-03-07T10:48:30.718Z,726.8
2023-03-07T10:49:33.895Z,727.2
2023-03-07T10:50:36.699Z,727.5
2023-03-07T10:51:38.964Z,727.5
2023-03-07T10:52:41.557Z,727.9
2023-03-07T10:53:44.089Z,728.1
2023-03-07T10:54:46.716Z,727.9
2023-03-07T10:55:49.493Z,729.1
2023-03-07T10:56:51.726Z,728.6
2023-03-07T10:57:55.026Z,729
2023-03-07T10:58:58.006Z,729.7
2023-03-07T11:00:00.533Z,729.4
2023-03-07T11:01:03.492Z,729.5
2023-03-07T11:02:06.076Z,730.1
2023-03-07T11:03:08.402Z,729.7
2023-03-07T11:04:10.664Z,730.1
2023-03-07T11:05:13.013Z,730.2
2023-03-07T11:06:15.229Z,730.5
2023-03-07T11:07:17.760Z,730.3
2023-03-07T11:08:20.280Z,730.4
2023-03-07T11:09:22.793Z,730.5
2023-03-07T11:10:25.113Z,730.4
2023-03-07T11:11:27.651Z,730.4
2023-03-07T11:12:30.220Z,731.1
2023-03-07T11:13:32.745Z,731.2
2023-03-07T11:14:35.291Z,730.9
2023-03-07T11:15:38.087Z,731.5
2023-03-07T11:16:40.757Z,732.6
2023-03-07T11:17:43.322Z,732.3
2023-03-07T11:18:45.586Z,731.7
2023-03-07T11:19:48.094Z,731.1
2023-03-07T11:20:50.339Z,731.3
2023-03-07T11:21:52.619Z,731.5
2023-03-07T11:22:55.125Z,731.9
2023-03-07T11:23:57.549Z,731.8
2023-03-07T11:25:00.057Z,732.2
2023-03-07T11:26:02.692Z,732.4
2023-03-07T11:27:05.225Z,733.2
2023-03-07T11:28:07.732Z,733.8
2023-03-07T11:29:09.948Z,733.9
2023-03-07T11:30:12.521Z,734.1
2023-03-07T11:31:15.453Z,733.9
2023-03-07T11:32:18.264Z,734
2023-03-07T11:33:20.802Z,733.9
2023-03-07T11:34:23.069Z,733.9
2023-03-07T11:35:25.566Z,734.1
2023-03-07T11:36:27.802Z,734
2023-03-07T11:37:30.360Z,734.4
2023-03-07T11:38:32.882Z,734.4
2023-03-07T11:39:35.398Z,734.3
2023-03-07T11:40:37.639Z,734.1
2023-03-07T11:41:40.306Z,734.7
2023-03-07T11:42:42.826Z,734.3
2023-03-07T11:43:45.330Z,734.8
2023-03-07T11:44:47.830Z,734.9
2023-03-07T11:45:50.080Z,734.2
2023-03-07T11:46:52.922Z,734.3
2023-03-07T11:47:55.173Z,734.5
2023-03-07T11:48:57.422Z,734.1
2023-03-07T11:49:59.982Z,734.4
2023-03-07T11:51:02.257Z,735
2023-03-07T11:52:04.764Z,735.1
2023-03-07T11:53:06.984Z,735.6
2023-03-07T11:54:09.756Z,735.3
2023-03-07T11:55:12.310Z,736.3
2023-03-07T11:56:14.279Z,736.2
2023-03-07T11:57:16.875Z,736.5
2023-03-07T11:58:18.845Z,736.9
2023-03-07T11:59:20.852Z,736.6
2023-03-07T12:00:22.868Z,737.1
2023-03-07T12:01:25.376Z,736.8
2023-03-07T12:02:28.255Z,737.3
2023-03-07T12:03:30.236Z,737.3
2023-03-07T12:04:32.731Z,736.6
2023-03-07T12:05:35.625Z,736.6
2023-03-07T12:06:37.359Z,736.7
2023-03-07T12:07:39.612Z,737.3
2023-03-07T12:08:42.110Z,737.6
2023-03-07T12:09:44.362Z,737.5
2023-03-07T12:10:46.887Z,737.9
2023-03-07T12:11:49.146Z,738.1
2023-03-07T12:12:51.844Z,738.3
2023-03-07T12:13:54.068Z,738.6
2023-03-07T12:14:56.594Z,738.4
2023-03-07T12:15:59.049Z,738.4
2023-03-07T12:17:01.601Z,738
2023-03-07T12:18:03.816Z,738.3
2023-03-07T12:19:06.334Z,738.9
2023-03-07T12:20:08.887Z,739.3
2023-03-07T12:21:11.426Z,739.1
2023-03-07T12:22:13.671Z,739.3
2023-03-07T12:23:16.182Z,739.8
2023-03-07T12:24:18.713Z,740.2
2023-03-07T12:25:21.033Z,740.2
2023-03-07T12:26:23.547Z,740.2
2023-03-07T12:28:31.168Z,741.6
2023-03-07T12:29:33.737Z,741.6
2023-03-07T12:30:36.276Z,741.9
2023-03-07T12:31:39.486Z,741.7
2023-03-07T12:32:42.894Z,741.7
2023-03-07T12:33:45.239Z,741.8
2023-03-07T12:34:47.193Z,741.6
2023-03-07T12:35:50.126Z,741
2023-03-07T12:36:52.692Z,741
2023-03-07T12:37:54.969Z,741
2023-03-07T12:38:57.207Z,740.8
2023-03-07T12:39:59.736Z,740
2023-03-07T12:41:02.262Z,740.6
2023-03-07T12:42:04.548Z,740.6
2023-03-07T12:43:07.054Z,740.7
2023-03-07T12:44:09.429Z,741.3
2023-03-07T12:45:12.097Z,741
2023-03-07T12:46:14.717Z,741.2
2023-03-07T12:47:17.300Z,741.2
2023-03-07T12:48:19.805Z,740.7
2023-03-07T12:49:22.041Z,740.7
2023-03-07T12:50:24.616Z,740.8
2023-03-07T12:51:28.458Z,740.7
2023-03-07T12:52:31.029Z,741
2023-03-07T12:53:33.528Z,741.7
2023-03-07T12:54:35.769Z,741.6
2023-03-07T12:55:38.278Z,741.4
2023-03-07T12:56:40.811Z,741.6
2023-03-07T12:57:43.322Z,741.7
2023-03-07T12:58:45.547Z,741.9
2023-03-07T12:59:48.162Z,742.4
2023-03-07T13:00:51.071Z,741.9
2023-03-07T13:01:53.601Z,742.4
2023-03-07T13:02:56.112Z,741.3
2023-03-07T13:03:58.904Z,741.5
2023-03-07T13:05:01.174Z,741.3
2023-03-07T13:06:03.718Z,741.5
2023-03-07T13:07:06.258Z,742.8
2023-03-07T13:08:08.851Z,742.3
2023-03-07T13:09:11.350Z,742.4
2023-03-07T13:10:14.027Z,742.5
2023-03-07T13:11:16.795Z,742.8
2023-03-07T13:12:19.320Z,743.3
2023-03-07T13:13:21.560Z,742.2
2023-03-07T13:14:24.079Z,742
2023-03-07T13:15:26.868Z,742.4
2023-03-07T13:16:29.377Z,742.8
2023-03-07T13:17:31.739Z,743.1
2023-03-07T13:18:34.307Z,742.5
2023-03-07T13:19:36.870Z,743
2023-03-07T13:20:39.392Z,743.2
2023-03-07T13:21:41.647Z,743.3
2023-03-07T13:22:44.271Z,743.4
2023-03-07T13:23:46.636Z,743.9
2023-03-07T13:24:48.883Z,743.2
2023-03-07T13:25:51.136Z,743.5
2023-03-07T13:26:53.417Z,743.3
2023-03-07T13:27:56.003Z,743
2023-03-07T13:28:58.247Z,743.4
2023-03-07T13:30:00.814Z,743.2
2023-03-07T13:31:03.677Z,743.5
2023-03-07T13:32:06.445Z,743.3
2023-03-07T13:33:08.814Z,743.9
2023-03-07T13:34:11.350Z,744.2
2023-03-07T13:35:13.627Z,744.4